Waumandee, Wisconsin
Current Conditions -  °F | °C
As of 7:33 AM on Saturday 25 Oct 2014 (Local Time) from KONA Reporting Station
Clear Clear  
Wind Chill: 44°   Ceiling: Unl
Heat Index: 46°   Visibility: 10mi
Dew Point: 43°   Wind: 6mph
Humidity: 87%   Direction: 300°WNW
Pressure: 29.97"   Gusts: NA
Location:  44.2495°N, 91.8243°W
Report Text: KONA 251233Z AUTO 30005KT 10SM CLR 08/06 A2997 RMK AO2
Loading
Personal Weather Stations






























Interactive Weather Map
Tropical Storm Tracking
New forecast layout! Learn more

10-Day Weather Forecast

Advertisements
Track Severe Weather on mobile